Time;durP1;ratioP1;P1;durP2;ratioP2;P2;SDS_P1;SDS_P2;PMS_P1;PMS_P2;Temp;Humidity;BMP_temperature;BMP_pressure;BME280_temperature;BME280_humidity;BME280_pressure;Samples;Min_cycle;Max_cycle;Signal;HPM_P1;HPM_P2
2023/05/17 00:02:49;;;;;;;10.02;7.28;;;;;;;;;;6300921;28;20554;-62
2023/05/17 00:05:49;;;;;;;9.95;6.90;;;;;;;;;;6298684;28;20071;-62
2023/05/17 00:08:50;;;;;;;11.10;7.25;;;;;;;;;;6294685;28;20414;-62
2023/05/17 00:11:51;;;;;;;11.10;7.20;;;;;;;;;;6295852;28;20090;-63
2023/05/17 00:14:52;;;;;;;11.23;7.28;;;;;;;;;;6298040;28;20052;-62
2023/05/17 00:17:53;;;;;;;10.23;7.18;;;;;;;;;;6298369;28;20044;-63
2023/05/17 00:20:53;;;;;;;11.40;7.78;;;;;;;;;;6299812;28;20043;-61
2023/05/17 00:23:54;;;;;;;10.65;7.47;;;;;;;;;;6300052;28;20052;-62
2023/05/17 00:26:54;;;;;;;10.75;7.95;;;;;;;;;;6298541;28;20045;-62
2023/05/17 00:29:55;;;;;;;9.32;6.80;;;;;;;;;;6297801;28;20083;-62
2023/05/17 00:32:55;;;;;;;12.07;6.85;;;;;;;;;;6298418;28;20093;-63
2023/05/17 00:35:56;;;;;;;9.93;7.00;;;;;;;;;;6297857;28;20048;-64
2023/05/17 00:38:57;;;;;;;9.68;7.10;;;;;;;;;;6297234;28;20045;-64
2023/05/17 00:41:59;;;;;;;9.85;7.13;;;;;;;;;;6297445;28;20417;-62
2023/05/17 00:45:00;;;;;;;11.25;7.57;;;;;;;;;;6297964;28;20086;-62
2023/05/17 00:48:01;;;;;;;12.23;7.80;;;;;;;;;;6295504;28;20032;-61
2023/05/17 00:51:01;;;;;;;10.52;7.13;;;;;;;;;;6298072;28;20044;-60
2023/05/17 00:54:03;;;;;;;10.00;8.00;;;;;;;;;;6298490;28;20649;-61
2023/05/17 00:57:04;;;;;;;10.82;7.13;;;;;;;;;;6305182;28;20164;-63
2023/05/17 01:00:06;;;;;;;10.38;7.18;;;;;;;;;;6305936;28;20152;-63
2023/05/17 01:03:07;;;;;;;10.65;7.63;;;;;;;;;;6298544;28;20122;-60
2023/05/17 01:06:07;;;;;;;11.02;7.70;;;;;;;;;;6299197;28;20048;-63
2023/05/17 01:09:08;;;;;;;10.48;7.72;;;;;;;;;;6295000;28;20048;-63
2023/05/17 01:12:35;;;;;;;11.10;8.40;;;;;;;;;;6299520;28;20059;-62
2023/05/17 01:15:43;;;;;;;12.00;8.13;;;;;;;;;;6293298;28;20052;-64
2023/05/17 01:18:51;;;;;;;10.13;7.28;;;;;;;;;;6306440;28;20503;-63
2023/05/17 01:22:14;;;;;;;10.48;7.72;;;;;;;;;;6298246;28;20053;-62
2023/05/17 01:25:25;;;;;;;10.13;7.43;;;;;;;;;;6298331;28;20040;-64
2023/05/17 01:28:27;;;;;;;10.07;7.07;;;;;;;;;;6295690;28;20109;-63
2023/05/17 01:31:28;;;;;;;11.40;6.82;;;;;;;;;;6295933;28;20056;-62
2023/05/17 01:34:28;;;;;;;8.68;6.55;;;;;;;;;;6300584;28;20120;-62
2023/05/17 01:37:29;;;;;;;9.25;6.22;;;;;;;;;;6301927;28;20380;-62
2023/05/17 01:40:34;;;;;;;9.88;6.95;;;;;;;;;;6300987;28;20070;-63
2023/05/17 01:43:55;;;;;;;8.90;6.53;;;;;;;;;;6297591;28;20056;-63
2023/05/17 01:47:05;;;;;;;9.98;6.75;;;;;;;;;;6296616;28;20142;-61
2023/05/17 01:50:07;;;;;;;10.10;7.05;;;;;;;;;;6294070;28;20100;-58
2023/05/17 01:53:16;;;;;;;10.60;6.85;;;;;;;;;;6295111;28;20058;-64
2023/05/17 01:56:26;;;;;;;9.48;6.78;;;;;;;;;;6311978;28;20044;-62
2023/05/17 01:59:29;;;;;;;11.10;7.63;;;;;;;;;;6308580;28;20120;-62
2023/05/17 02:02:30;;;;;;;9.13;6.63;;;;;;;;;;6296957;28;20055;-59
2023/05/17 02:05:31;;;;;;;9.77;7.18;;;;;;;;;;6307561;28;20066;-59
2023/05/17 02:08:31;;;;;;;10.65;7.47;;;;;;;;;;6306766;28;20056;-61
2023/05/17 02:11:32;;;;;;;10.32;7.45;;;;;;;;;;6310212;28;20048;-60
2023/05/17 02:14:33;;;;;;;11.43;8.00;;;;;;;;;;6307766;28;20127;-64
2023/05/17 02:17:33;;;;;;;11.40;7.85;;;;;;;;;;6294921;28;20480;-63
2023/05/17 02:20:34;;;;;;;12.95;8.05;;;;;;;;;;6304760;28;20059;-62
2023/05/17 02:23:34;;;;;;;11.95;7.65;;;;;;;;;;6306891;28;20052;-63
2023/05/17 02:26:35;;;;;;;15.40;8.20;;;;;;;;;;6293708;28;20049;-63
2023/05/17 02:29:36;;;;;;;11.85;7.97;;;;;;;;;;6296133;28;20052;-64
2023/05/17 02:32:37;;;;;;;16.48;9.45;;;;;;;;;;6297709;28;20151;-64
2023/05/17 02:35:37;;;;;;;11.17;7.97;;;;;;;;;;6309588;28;20044;-63
2023/05/17 02:38:38;;;;;;;11.23;7.90;;;;;;;;;;6297881;28;20076;-63
2023/05/17 02:41:39;;;;;;;12.05;8.63;;;;;;;;;;6299113;28;20423;-63
2023/05/17 02:44:39;;;;;;;11.40;8.05;;;;;;;;;;6296952;28;20037;-63
2023/05/17 02:47:40;;;;;;;12.10;8.10;;;;;;;;;;6293946;28;20051;-62
2023/05/17 02:50:40;;;;;;;11.23;8.38;;;;;;;;;;6296624;28;20235;-62
2023/05/17 02:53:41;;;;;;;12.60;8.57;;;;;;;;;;6297372;28;20047;-63
2023/05/17 02:56:42;;;;;;;13.43;9.02;;;;;;;;;;6307970;28;20048;-62
2023/05/17 02:59:42;;;;;;;14.18;8.90;;;;;;;;;;6304694;28;20055;-57
2023/05/17 03:02:43;;;;;;;11.00;8.07;;;;;;;;;;6297566;28;20071;-63
2023/05/17 03:05:44;;;;;;;12.57;8.00;;;;;;;;;;6310940;28;20052;-61
2023/05/17 03:08:44;;;;;;;10.18;7.22;;;;;;;;;;6299477;28;20891;-60
2023/05/17 03:11:45;;;;;;;9.50;6.75;;;;;;;;;;6298194;28;20556;-63
2023/05/17 03:14:46;;;;;;;9.55;6.32;;;;;;;;;;6297823;28;20080;-61
2023/05/17 03:17:46;;;;;;;9.75;6.97;;;;;;;;;;6311345;27;20093;-63
2023/05/17 03:20:47;;;;;;;7.93;5.57;;;;;;;;;;6303169;28;20048;-62
2023/05/17 03:23:48;;;;;;;9.80;6.10;;;;;;;;;;6302389;28;20082;-63
2023/05/17 03:26:48;;;;;;;9.00;5.93;;;;;;;;;;6320733;28;20054;-63
2023/05/17 03:29:49;;;;;;;8.45;6.03;;;;;;;;;;6311524;28;20037;-58
2023/05/17 03:32:50;;;;;;;9.60;6.43;;;;;;;;;;6300400;28;20045;-62
2023/05/17 03:35:50;;;;;;;11.90;6.97;;;;;;;;;;6303155;28;20047;-63
2023/05/17 03:38:51;;;;;;;10.30;7.05;;;;;;;;;;6299736;28;20087;-58
2023/05/17 03:41:51;;;;;;;10.48;6.70;;;;;;;;;;6309226;28;20413;-60
2023/05/17 03:44:52;;;;;;;11.30;7.40;;;;;;;;;;6306809;28;20491;-60
2023/05/17 03:47:53;;;;;;;9.95;6.97;;;;;;;;;;6300698;28;20518;-63
2023/05/17 03:50:54;;;;;;;11.38;7.50;;;;;;;;;;6297253;28;20090;-59
2023/05/17 03:53:59;;;;;;;11.48;7.38;;;;;;;;;;6296434;28;20533;-64
2023/05/17 03:57:00;;;;;;;9.60;6.82;;;;;;;;;;6289710;28;20648;-62
2023/05/17 04:00:00;;;;;;;10.00;7.18;;;;;;;;;;6295370;28;20059;-63
2023/05/17 04:03:01;;;;;;;10.00;6.85;;;;;;;;;;6300830;28;20051;-62
2023/05/17 04:06:06;;;;;;;9.95;6.50;;;;;;;;;;6298430;28;20048;-63
2023/05/17 04:09:09;;;;;;;10.10;6.35;;;;;;;;;;6298475;28;20065;-63
2023/05/17 04:12:10;;;;;;;8.88;6.07;;;;;;;;;;6294824;28;20097;-63
2023/05/17 04:15:10;;;;;;;11.40;7.10;;;;;;;;;;6297356;28;20408;-62
2023/05/17 04:18:11;;;;;;;9.68;6.97;;;;;;;;;;6298579;28;20055;-57
2023/05/17 04:21:12;;;;;;;10.25;7.07;;;;;;;;;;6301472;28;20078;-63
2023/05/17 04:24:12;;;;;;;10.07;7.13;;;;;;;;;;6298940;28;20510;-63
2023/05/17 04:27:13;;;;;;;10.65;7.35;;;;;;;;;;6293593;28;20044;-63
2023/05/17 04:30:13;;;;;;;10.98;7.28;;;;;;;;;;6297544;28;20557;-62
2023/05/17 04:33:15;;;;;;;9.75;6.50;;;;;;;;;;6295586;28;20384;-62
2023/05/17 04:36:16;;;;;;;11.85;7.55;;;;;;;;;;6301356;28;20044;-63
2023/05/17 04:39:17;;;;;;;11.93;7.37;;;;;;;;;;6295150;28;20060;-60
2023/05/17 04:42:17;;;;;;;11.73;7.45;;;;;;;;;;6305470;28;20104;-61
2023/05/17 04:45:18;;;;;;;13.25;7.95;;;;;;;;;;6295494;28;20055;-62
2023/05/17 04:48:19;;;;;;;12.57;8.05;;;;;;;;;;6297424;28;20044;-61
2023/05/17 04:51:20;;;;;;;11.67;7.30;;;;;;;;;;6296443;28;21056;-62
2023/05/17 04:54:20;;;;;;;12.52;7.15;;;;;;;;;;6295323;28;20047;-63
2023/05/17 04:57:21;;;;;;;10.95;6.68;;;;;;;;;;6296906;28;20751;-62
2023/05/17 05:00:22;;;;;;;10.25;6.60;;;;;;;;;;6297076;28;20056;-62
2023/05/17 05:03:23;;;;;;;10.77;6.63;;;;;;;;;;6297676;28;20078;-62
2023/05/17 05:06:23;;;;;;;11.75;6.97;;;;;;;;;;6295800;28;20045;-64
2023/05/17 05:09:24;;;;;;;10.20;6.72;;;;;;;;;;6295072;28;20411;-62
2023/05/17 05:12:25;;;;;;;12.20;7.60;;;;;;;;;;6298755;28;20609;-63
2023/05/17 05:15:25;;;;;;;12.05;7.53;;;;;;;;;;6293783;28;20427;-63
2023/05/17 05:18:26;;;;;;;12.57;7.95;;;;;;;;;;6296673;28;20040;-63
2023/05/17 05:21:27;;;;;;;12.13;8.13;;;;;;;;;;6295041;28;20127;-63
2023/05/17 05:24:27;;;;;;;15.18;8.93;;;;;;;;;;6290764;28;20478;-64
2023/05/17 05:27:28;;;;;;;14.07;8.20;;;;;;;;;;6294793;28;20064;-63
2023/05/17 05:30:28;;;;;;;13.57;7.75;;;;;;;;;;6297333;28;20055;-63
2023/05/17 05:33:30;;;;;;;13.63;7.78;;;;;;;;;;6295788;28;20464;-63
2023/05/17 05:36:31;;;;;;;14.10;8.50;;;;;;;;;;6295995;28;20044;-64
2023/05/17 05:39:31;;;;;;;13.20;8.02;;;;;;;;;;6295047;28;20047;-61
2023/05/17 05:42:32;;;;;;;12.48;7.70;;;;;;;;;;6298205;28;20044;-65
2023/05/17 05:45:32;;;;;;;12.57;7.85;;;;;;;;;;6295714;28;20136;-62
2023/05/17 05:48:33;;;;;;;13.32;8.27;;;;;;;;;;6295005;28;20722;-63
2023/05/17 05:51:34;;;;;;;12.57;8.10;;;;;;;;;;6296021;28;20143;-59
2023/05/17 05:54:34;;;;;;;13.85;8.15;;;;;;;;;;6297159;28;20131;-62
2023/05/17 05:57:35;;;;;;;12.70;7.65;;;;;;;;;;6295616;28;20040;-63
2023/05/17 06:00:36;;;;;;;15.00;8.65;;;;;;;;;;6294819;28;20044;-61
2023/05/17 06:03:37;;;;;;;14.07;8.07;;;;;;;;;;6295053;28;20055;-61
2023/05/17 06:06:37;;;;;;;14.57;8.68;;;;;;;;;;6292590;28;20059;-62
2023/05/17 06:09:38;;;;;;;13.85;8.80;;;;;;;;;;6298482;28;20442;-62
2023/05/17 06:12:38;;;;;;;12.63;7.95;;;;;;;;;;6291920;28;20048;-63
2023/05/17 06:15:39;;;;;;;13.05;7.78;;;;;;;;;;6293372;28;20185;-59
2023/05/17 06:18:40;;;;;;;16.65;9.13;;;;;;;;;;6299422;28;20044;-62
2023/05/17 06:21:40;;;;;;;16.52;9.80;;;;;;;;;;6295212;28;20060;-57
2023/05/17 06:24:41;;;;;;;19.67;9.73;;;;;;;;;;6297276;28;20044;-64
2023/05/17 06:27:42;;;;;;;16.10;9.65;;;;;;;;;;6298747;28;20138;-59
2023/05/17 06:30:43;;;;;;;18.33;10.63;;;;;;;;;;6305942;28;20044;-59
2023/05/17 06:33:44;;;;;;;15.43;9.50;;;;;;;;;;6305012;28;20032;-62
2023/05/17 06:36:44;;;;;;;14.80;8.30;;;;;;;;;;6304345;28;20105;-62
2023/05/17 06:39:45;;;;;;;13.55;8.20;;;;;;;;;;6310467;28;20067;-61
2023/05/17 06:42:45;;;;;;;11.88;7.35;;;;;;;;;;6302977;28;20040;-63
2023/05/17 06:45:46;;;;;;;13.13;7.65;;;;;;;;;;6300328;28;20082;-60
2023/05/17 06:48:46;;;;;;;12.88;7.15;;;;;;;;;;6296495;28;20051;-62
2023/05/17 06:51:47;;;;;;;16.45;8.98;;;;;;;;;;6311334;28;20105;-59
2023/05/17 08:08:45;;;;;;;18.50;12.25;;;;;;;;;;6354537;27;20411;-62
2023/05/17 08:11:46;;;;;;;21.45;12.52;;;;;;;;;;6333125;28;20075;-61
2023/05/17 08:14:47;;;;;;;21.00;12.93;;;;;;;;;;6330321;28;20525;-63
2023/05/17 08:17:47;;;;;;;21.10;11.90;;;;;;;;;;6331716;28;20047;-64
2023/05/17 08:20:49;;;;;;;18.73;11.63;;;;;;;;;;6334792;28;20047;-62
2023/05/17 08:23:50;;;;;;;21.20;12.77;;;;;;;;;;6335311;28;20054;-61
2023/05/17 08:26:51;;;;;;;20.77;11.80;;;;;;;;;;6327393;28;20044;-63
2023/05/17 08:29:53;;;;;;;20.83;12.00;;;;;;;;;;6327519;28;20535;-61
2023/05/17 08:32:55;;;;;;;21.13;11.57;;;;;;;;;;6329832;28;20040;-62
2023/05/17 08:35:56;;;;;;;18.10;10.82;;;;;;;;;;6326802;28;20044;-62
2023/05/17 08:38:57;;;;;;;18.83;10.95;;;;;;;;;;6327163;28;20482;-62
2023/05/17 08:42:00;;;;;;;17.73;10.38;;;;;;;;;;6326843;28;20362;-61
2023/05/17 08:45:00;;;;;;;18.10;11.23;;;;;;;;;;6329397;28;20387;-63
2023/05/17 08:48:02;;;;;;;19.73;11.73;;;;;;;;;;6328348;28;20048;-59
2023/05/17 08:51:02;;;;;;;22.35;12.18;;;;;;;;;;6329339;28;20044;-59
2023/05/17 08:54:04;;;;;;;21.02;13.05;;;;;;;;;;6329665;28;20403;-62
2023/05/17 08:57:06;;;;;;;17.88;11.05;;;;;;;;;;6327993;28;20082;-60
2023/05/17 09:00:17;;;;;;;18.50;10.40;;;;;;;;;;6329466;28;20046;-61
2023/05/17 09:03:18;;;;;;;17.67;11.07;;;;;;;;;;6328328;28;20669;-61
2023/05/17 09:06:21;;;;;;;14.20;8.60;;;;;;;;;;6325250;28;20105;-62
2023/05/17 09:09:22;;;;;;;14.15;8.38;;;;;;;;;;6312610;28;20130;-59
2023/05/17 09:12:23;;;;;;;16.85;8.80;;;;;;;;;;6310123;28;20418;-61
2023/05/17 09:15:25;;;;;;;14.85;7.90;;;;;;;;;;6313035;28;20044;-61
2023/05/17 09:18:31;;;;;;;14.35;8.48;;;;;;;;;;6313000;28;20504;-61
2023/05/17 09:21:32;;;;;;;11.95;7.95;;;;;;;;;;6311252;28;20051;-61
2023/05/17 09:24:34;;;;;;;14.60;8.80;;;;;;;;;;6311882;28;20610;-62
2023/05/17 09:27:34;;;;;;;14.45;9.68;;;;;;;;;;6307287;28;20100;-60
2023/05/17 09:30:40;;;;;;;18.40;10.10;;;;;;;;;;6310593;28;20044;-62
2023/05/17 09:33:46;;;;;;;18.02;10.48;;;;;;;;;;6307906;28;20123;-61
2023/05/17 09:36:46;;;;;;;18.48;10.45;;;;;;;;;;6310570;28;20044;-62
2023/05/17 09:39:47;;;;;;;18.58;11.23;;;;;;;;;;6311849;28;20055;-61
2023/05/17 09:42:48;;;;;;;20.08;11.63;;;;;;;;;;6312917;28;20040;-60
2023/05/17 09:45:56;;;;;;;22.35;13.23;;;;;;;;;;6311701;28;20538;-61
2023/05/17 09:48:57;;;;;;;21.17;13.63;;;;;;;;;;6308704;28;20040;-61
2023/05/17 09:51:57;;;;;;;22.70;13.18;;;;;;;;;;6309432;28;20143;-61
2023/05/17 09:54:59;;;;;;;23.40;14.55;;;;;;;;;;6311723;28;20066;-59
2023/05/17 09:58:02;;;;;;;27.63;14.60;;;;;;;;;;6311299;28;20040;-61
2023/05/17 10:01:06;;;;;;;25.17;14.77;;;;;;;;;;6309820;28;20062;-61
2023/05/17 10:04:10;;;;;;;23.65;13.88;;;;;;;;;;6309429;28;20048;-62
2023/05/17 10:07:11;;;;;;;22.20;12.75;;;;;;;;;;6307955;28;20052;-62
2023/05/17 10:10:12;;;;;;;20.15;11.40;;;;;;;;;;6310875;28;20106;-61
2023/05/17 10:13:15;;;;;;;15.32;9.55;;;;;;;;;;6309717;28;20050;-62
2023/05/17 10:16:16;;;;;;;;;;;;;;;;;;6309051;28;20056;-62
2023/05/17 10:19:19;;;;;;;17.33;9.27;;;;;;;;;;6305429;28;20374;-61
2023/05/17 10:22:21;;;;;;;16.90;10.02;;;;;;;;;;6310472;28;20048;-60
2023/05/17 10:25:22;;;;;;;16.83;10.48;;;;;;;;;;6306985;28;20048;-60
2023/05/17 10:28:23;;;;;;;18.33;10.85;;;;;;;;;;6308117;28;20059;-62
2023/05/17 10:31:25;;;;;;;20.00;11.13;;;;;;;;;;6308046;28;20547;-61
2023/05/17 10:34:27;;;;;;;19.15;12.18;;;;;;;;;;6308331;28;20510;-61
2023/05/17 10:37:29;;;;;;;22.50;13.05;;;;;;;;;;6308145;28;20495;-62
2023/05/17 10:40:31;;;;;;;21.15;12.50;;;;;;;;;;6312359;28;20043;-60
2023/05/17 10:43:33;;;;;;;19.75;12.18;;;;;;;;;;6311976;28;20418;-62
2023/05/17 10:46:33;;;;;;;18.13;11.10;;;;;;;;;;6315121;28;20043;-61
2023/05/17 10:49:36;;;;;;;23.30;14.05;;;;;;;;;;6315811;28;20410;-60
2023/05/17 10:52:44;;;;;;;22.02;14.27;;;;;;;;;;6316421;28;20467;-62
2023/05/17 10:55:44;;;;;;;25.23;14.05;;;;;;;;;;6316113;28;20032;-62
2023/05/17 10:58:45;;;;;;;26.15;15.30;;;;;;;;;;6314833;28;20044;-62
2023/05/17 11:02:02;;;;;;;23.15;14.43;;;;;;;;;;6315756;28;20036;-61
2023/05/17 11:05:03;;;;;;;23.42;14.55;;;;;;;;;;6314144;28;20079;-62
2023/05/17 11:08:15;;;;;;;21.80;13.77;;;;;;;;;;6312751;28;20056;-61
2023/05/17 11:11:17;;;;;;;23.58;14.35;;;;;;;;;;6312560;28;20036;-61
2023/05/17 11:14:18;;;;;;;;;;;;;;;;;;6306782;28;20062;-62
2023/05/17 11:17:20;;;;;;;22.83;13.85;;;;;;;;;;6308575;28;19924;-62
2023/05/17 11:20:24;;;;;;;28.25;14.35;;;;;;;;;;6306853;28;20052;-61
2023/05/17 11:23:28;;;;;;;28.17;16.65;;;;;;;;;;6308830;28;20058;-60
2023/05/17 11:26:35;;;;;;;30.10;16.45;;;;;;;;;;6307888;28;20052;-61
2023/05/17 11:29:39;;;;;;;26.35;14.40;;;;;;;;;;6304929;28;20694;-60
2023/05/17 11:32:46;;;;;;;25.98;14.27;;;;;;;;;;6307113;28;20046;-61
2023/05/17 11:35:46;;;;;;;25.35;15.80;;;;;;;;;;6307376;28;20165;-60
2023/05/17 11:38:49;;;;;;;25.70;14.85;;;;;;;;;;6308520;28;20060;-61
2023/05/17 11:41:53;;;;;;;23.77;14.02;;;;;;;;;;6306176;28;20055;-59
2023/05/17 11:44:59;;;;;;;22.23;13.82;;;;;;;;;;6306914;28;20040;-61
2023/05/17 11:48:00;;;;;;;25.63;14.57;;;;;;;;;;6306894;28;20097;-61
2023/05/17 11:51:01;;;;;;;24.15;14.00;;;;;;;;;;6304350;28;20056;-59
2023/05/17 11:54:03;;;;;;;26.17;13.43;;;;;;;;;;6306249;28;20048;-61
2023/05/17 11:57:05;;;;;;;20.48;13.85;;;;;;;;;;6308480;28;20044;-61
2023/05/17 12:00:06;;;;;;;21.67;13.13;;;;;;;;;;6306807;28;20044;-61
2023/05/17 12:03:15;;;;;;;19.42;12.75;;;;;;;;;;6307403;28;20058;-61
2023/05/17 12:06:16;;;;;;;22.67;13.02;;;;;;;;;;6306741;28;20148;-59
2023/05/17 12:09:17;;;;;;;23.85;13.65;;;;;;;;;;6305898;28;20105;-61
2023/05/17 12:12:20;;;;;;;19.13;11.52;;;;;;;;;;6305370;28;20558;-59
2023/05/17 12:15:21;;;;;;;19.17;11.10;;;;;;;;;;6306360;28;20062;-62
2023/05/17 12:18:22;;;;;;;17.23;10.07;;;;;;;;;;6307839;28;20049;-60
2023/05/17 12:38:45;;;;;;;14.77;9.98;;;;;;;;;;6246640;28;20416;-59
2023/05/17 12:41:46;;;;;;;15.48;8.48;;;;;;;;;;6222292;28;20107;-59
2023/05/17 12:44:47;;;;;;;13.77;7.93;;;;;;;;;;6220575;28;20444;-60
2023/05/17 12:47:49;;;;;;;15.25;8.13;;;;;;;;;;6226087;28;20404;-60
2023/05/17 12:50:51;;;;;;;;;;;;;;;;;;6217628;28;20381;-59
2023/05/17 12:53:54;;;;;;;13.30;6.72;;;;;;;;;;6209881;28;19926;-58
2023/05/17 12:56:55;;;;;;;14.68;8.27;;;;;;;;;;6214442;28;20084;-60
2023/05/17 12:59:56;;;;;;;13.35;6.70;;;;;;;;;;6212577;28;20425;-59
2023/05/17 13:02:56;;;;;;;15.38;7.75;;;;;;;;;;6209192;28;20070;-59
2023/05/17 13:06:05;;;;;;;11.60;6.40;;;;;;;;;;6211381;28;20045;-61
2023/05/17 13:09:06;;;;;;;14.98;7.50;;;;;;;;;;6211230;28;20061;-59
2023/05/17 13:12:07;;;;;;;15.18;7.78;;;;;;;;;;6211569;28;20156;-59
2023/05/17 13:15:08;;;;;;;13.50;7.15;;;;;;;;;;6209734;28;20529;-60
2023/05/17 13:18:12;;;;;;;13.07;6.38;;;;;;;;;;6208423;28;20071;-60
2023/05/17 13:21:13;;;;;;;10.85;5.93;;;;;;;;;;6208783;28;20491;-57
2023/05/17 13:24:14;;;;;;;12.88;6.43;;;;;;;;;;6211566;28;20541;-57
2023/05/17 13:27:15;;;;;;;17.92;7.30;;;;;;;;;;6207755;28;20161;-60
2023/05/17 13:30:16;;;;;;;11.57;6.32;;;;;;;;;;6209442;28;20058;-61
2023/05/17 13:33:17;;;;;;;13.88;6.13;;;;;;;;;;6211375;28;20073;-60
2023/05/17 13:36:18;;;;;;;14.32;7.38;;;;;;;;;;6205190;28;20050;-59
2023/05/17 13:39:19;;;;;;;11.65;6.30;;;;;;;;;;6196100;28;20313;-59
2023/05/17 13:42:21;;;;;;;13.55;6.53;;;;;;;;;;6194189;28;20046;-59
2023/05/17 13:45:22;;;;;;;14.13;6.43;;;;;;;;;;6194798;28;20092;-58
2023/05/17 13:48:22;;;;;;;14.40;7.32;;;;;;;;;;6191630;28;20499;-58
2023/05/17 13:51:24;;;;;;;14.57;6.72;;;;;;;;;;6196708;28;20038;-57
2023/05/17 13:54:25;;;;;;;16.08;6.68;;;;;;;;;;6191960;28;20338;-60
2023/05/17 13:57:25;;;;;;;15.10;7.13;;;;;;;;;;6195167;28;20043;-57
2023/05/17 14:00:26;;;;;;;14.45;7.57;;;;;;;;;;6191847;28;20046;-60
2023/05/17 14:03:26;;;;;;;14.20;7.13;;;;;;;;;;6195965;28;20412;-61
2023/05/17 14:06:27;;;;;;;16.63;8.10;;;;;;;;;;6190902;28;21950;-60
2023/05/17 14:09:31;;;;;;;14.88;7.60;;;;;;;;;;6195578;28;20038;-60
2023/05/17 14:12:32;;;;;;;17.38;8.10;;;;;;;;;;6192014;28;20038;-60
2023/05/17 14:15:36;;;;;;;16.63;7.80;;;;;;;;;;6193837;28;20413;-60
2023/05/17 14:18:37;;;;;;;16.23;7.95;;;;;;;;;;6194375;28;20034;-60
2023/05/17 14:21:38;;;;;;;17.52;8.73;;;;;;;;;;6193825;28;20053;-59
2023/05/17 14:24:38;;;;;;;15.60;8.35;;;;;;;;;;6194858;28;20093;-60
2023/05/17 14:27:39;;;;;;;20.20;9.07;;;;;;;;;;6193650;28;20049;-60
2023/05/17 14:30:40;;;;;;;20.60;9.73;;;;;;;;;;6193763;28;20046;-60
2023/05/17 14:33:40;;;;;;;19.50;9.75;;;;;;;;;;6195774;28;21460;-60
2023/05/17 14:36:41;;;;;;;20.80;10.15;;;;;;;;;;6179540;28;20060;-60
2023/05/17 14:39:42;;;;;;;20.23;9.75;;;;;;;;;;6184368;28;20481;-60
2023/05/17 14:42:42;;;;;;;17.73;9.90;;;;;;;;;;6182313;28;20205;-59
2023/05/17 14:45:43;;;;;;;18.73;9.45;;;;;;;;;;6179410;28;20052;-56
2023/05/17 14:48:43;;;;;;;21.52;11.25;;;;;;;;;;6178823;28;20404;-59
2023/05/17 14:51:44;;;;;;;22.35;11.15;;;;;;;;;;6181403;28;20708;-58
2023/05/17 14:54:45;;;;;;;24.08;12.18;;;;;;;;;;6180381;28;20065;-60
2023/05/17 14:57:45;;;;;;;21.45;11.43;;;;;;;;;;6178518;28;20544;-60
2023/05/17 15:00:47;;;;;;;22.17;12.15;;;;;;;;;;6179277;28;20052;-59
2023/05/17 15:03:47;;;;;;;21.25;9.75;;;;;;;;;;6181151;28;20101;-58
2023/05/17 15:06:48;;;;;;;18.17;10.05;;;;;;;;;;6177465;28;20038;-60
2023/05/17 15:09:49;;;;;;;19.83;10.77;;;;;;;;;;6178782;28;20488;-59
2023/05/17 15:12:49;;;;;;;20.00;11.73;;;;;;;;;;6181000;28;20635;-60
2023/05/17 15:15:51;;;;;;;21.25;11.15;;;;;;;;;;6177070;28;20046;-60
2023/05/17 15:18:52;;;;;;;19.38;10.40;;;;;;;;;;6179907;28;20046;-58
2023/05/17 15:21:53;;;;;;;20.05;9.95;;;;;;;;;;6180214;28;20080;-58
2023/05/17 15:24:54;;;;;;;19.90;9.90;;;;;;;;;;6183864;28;20177;-59
2023/05/17 15:27:54;;;;;;;22.00;9.95;;;;;;;;;;6184696;28;20528;-60
2023/05/17 15:31:00;;;;;;;19.48;9.57;;;;;;;;;;6188953;28;20198;-59
2023/05/17 15:34:00;;;;;;;19.70;9.35;;;;;;;;;;6186348;28;20502;-58
2023/05/17 15:37:01;;;;;;;21.60;9.98;;;;;;;;;;6180635;28;20061;-59
2023/05/17 15:40:08;;;;;;;19.02;9.98;;;;;;;;;;6186786;28;20053;-59
2023/05/17 15:43:08;;;;;;;20.52;10.32;;;;;;;;;;6185429;28;20148;-60
2023/05/17 15:46:10;;;;;;;22.25;11.30;;;;;;;;;;6188901;28;20072;-60
2023/05/17 15:49:11;;;;;;;24.98;11.85;;;;;;;;;;6188414;28;20069;-58
2023/05/17 15:52:11;;;;;;;22.85;11.43;;;;;;;;;;6189438;28;20062;-59
2023/05/17 15:55:12;;;;;;;24.77;11.45;;;;;;;;;;6187359;28;20051;-59
2023/05/17 15:58:12;;;;;;;22.00;10.98;;;;;;;;;;6176434;28;20431;-59
2023/05/17 16:01:14;;;;;;;51.17;18.42;;;;;;;;;;6188223;28;20057;-59
2023/05/17 16:04:14;;;;;;;25.80;12.80;;;;;;;;;;6188368;28;20050;-58
2023/05/17 16:07:16;;;;;;;27.05;12.50;;;;;;;;;;6186156;28;20042;-60
2023/05/17 16:10:17;;;;;;;30.40;13.95;;;;;;;;;;6190819;28;20049;-60
2023/05/17 16:13:17;;;;;;;24.73;12.50;;;;;;;;;;6186243;28;20060;-60
2023/05/17 16:16:18;;;;;;;30.15;14.57;;;;;;;;;;6182225;28;20046;-60
2023/05/17 16:19:18;;;;;;;25.25;13.93;;;;;;;;;;6183484;28;20057;-68
2023/05/17 16:22:19;;;;;;;31.50;15.40;;;;;;;;;;6186333;28;20393;-61
2023/05/17 16:25:22;;;;;;;31.80;15.90;;;;;;;;;;6183805;28;20100;-59
2023/05/17 16:28:23;;;;;;;35.38;16.98;;;;;;;;;;6182239;28;20515;-61
2023/05/17 16:31:23;;;;;;;30.55;15.52;;;;;;;;;;6191643;28;20042;-59
2023/05/17 16:34:26;;;;;;;34.65;17.02;;;;;;;;;;6190143;28;20058;-56
2023/05/17 16:37:26;;;;;;;39.70;19.25;;;;;;;;;;6189914;28;20406;-57
2023/05/17 16:40:27;;;;;;;32.03;16.58;;;;;;;;;;6190522;28;20053;-60
2023/05/17 16:43:29;;;;;;;35.28;16.83;;;;;;;;;;6186004;28;20157;-61
2023/05/17 16:46:29;;;;;;;33.73;16.73;;;;;;;;;;6186020;28;20136;-60
2023/05/17 16:49:30;;;;;;;34.90;18.33;;;;;;;;;;6183985;28;20948;-59
2023/05/17 16:52:30;;;;;;;46.60;23.40;;;;;;;;;;6187701;28;20049;-60
2023/05/17 16:55:31;;;;;;;41.45;21.30;;;;;;;;;;6181443;28;20112;-61
2023/05/17 16:58:32;;;;;;;46.35;22.95;;;;;;;;;;6185928;28;20050;-58
2023/05/17 17:01:33;;;;;;;35.57;20.03;;;;;;;;;;6182907;28;20050;-59
2023/05/17 17:04:34;;;;;;;34.28;19.38;;;;;;;;;;6181083;28;20053;-61
2023/05/17 17:07:35;;;;;;;31.97;18.10;;;;;;;;;;6178291;28;20050;-60
2023/05/17 17:10:35;;;;;;;35.72;18.17;;;;;;;;;;6182377;28;20053;-61
2023/05/17 17:13:36;;;;;;;27.27;15.38;;;;;;;;;;6188392;28;20577;-60
2023/05/17 17:16:37;;;;;;;29.30;15.75;;;;;;;;;;6184578;28;20425;-59
2023/05/17 17:19:38;;;;;;;31.23;16.10;;;;;;;;;;6186400;28;20118;-61
2023/05/17 17:22:39;;;;;;;32.92;16.13;;;;;;;;;;6188372;28;20062;-61
2023/05/17 17:25:39;;;;;;;32.87;16.70;;;;;;;;;;6183104;28;20452;-61
2023/05/17 17:28:40;;;;;;;30.90;16.90;;;;;;;;;;6185458;28;20054;-59
2023/05/17 17:31:41;;;;;;;32.38;16.00;;;;;;;;;;6186627;28;20054;-60
2023/05/17 17:34:41;;;;;;;31.52;15.85;;;;;;;;;;6186139;28;20779;-61
2023/05/17 17:37:42;;;;;;;32.40;18.25;;;;;;;;;;6183249;28;20556;-60
2023/05/17 17:40:43;;;;;;;33.10;17.17;;;;;;;;;;6188737;28;20053;-60
2023/05/17 17:43:46;;;;;;;38.80;19.33;;;;;;;;;;6186092;28;20079;-61
2023/05/17 17:46:47;;;;;;;39.13;19.02;;;;;;;;;;6185546;28;20034;-60
2023/05/17 17:49:47;;;;;;;36.33;19.88;;;;;;;;;;6191961;28;20070;-60
2023/05/17 17:52:49;;;;;;;37.08;19.98;;;;;;;;;;6190776;28;20069;-56
2023/05/17 17:55:49;;;;;;;35.10;19.25;;;;;;;;;;6189599;28;20393;-61
2023/05/17 17:58:54;;;;;;;37.97;19.85;;;;;;;;;;6186152;28;20054;-61
2023/05/17 18:01:55;;;;;;;40.22;22.00;;;;;;;;;;6186362;28;20054;-60
2023/05/17 18:04:55;;;;;;;40.05;21.25;;;;;;;;;;6186605;28;20084;-60
2023/05/17 18:07:56;;;;;;;34.15;19.20;;;;;;;;;;6184952;28;20100;-60
2023/05/17 18:10:57;;;;;;;35.30;18.13;;;;;;;;;;6191902;28;20860;-61
2023/05/17 18:13:57;;;;;;;37.97;18.02;;;;;;;;;;6188824;28;20796;-61
2023/05/17 18:16:58;;;;;;;47.65;26.98;;;;;;;;;;6189319;28;20050;-60
2023/05/17 18:19:58;;;;;;;40.10;22.88;;;;;;;;;;6189566;28;20133;-61
2023/05/17 18:22:59;;;;;;;36.75;18.65;;;;;;;;;;6190591;28;20069;-61
2023/05/17 18:26:01;;;;;;;34.45;17.48;;;;;;;;;;6187730;28;20158;-59
2023/05/17 18:29:02;;;;;;;33.10;17.92;;;;;;;;;;6193436;28;20512;-60
2023/05/17 18:32:04;;;;;;;39.03;19.33;;;;;;;;;;6186557;28;20433;-60
2023/05/17 18:35:05;;;;;;;37.63;19.40;;;;;;;;;;6185458;28;20303;-59
2023/05/17 18:38:06;;;;;;;32.58;19.27;;;;;;;;;;6186304;28;20084;-60
2023/05/17 18:41:06;;;;;;;33.88;18.23;;;;;;;;;;6188873;28;20050;-62
2023/05/17 18:44:07;;;;;;;39.63;19.67;;;;;;;;;;6187145;28;20034;-62
2023/05/17 18:47:07;;;;;;;34.67;17.48;;;;;;;;;;6181369;28;20054;-61
2023/05/17 18:50:08;;;;;;;35.38;17.13;;;;;;;;;;6189578;28;20469;-60
2023/05/17 18:53:09;;;;;;;32.22;17.98;;;;;;;;;;6190237;28;20575;-60
2023/05/17 18:56:11;;;;;;;32.73;17.83;;;;;;;;;;6190957;28;20069;-60
2023/05/17 18:59:12;;;;;;;37.27;18.37;;;;;;;;;;6184613;28;20119;-60
2023/05/17 19:02:12;;;;;;;31.33;17.52;;;;;;;;;;6187256;28;20302;-60
2023/05/17 19:05:13;;;;;;;33.78;18.23;;;;;;;;;;6184379;28;20052;-61
2023/05/17 19:08:14;;;;;;;32.83;17.20;;;;;;;;;;6191464;28;20042;-59
2023/05/17 19:11:15;;;;;;;36.88;18.92;;;;;;;;;;6194155;28;20358;-59
2023/05/17 19:14:16;;;;;;;34.67;17.73;;;;;;;;;;6187175;28;20042;-59
2023/05/17 19:17:16;;;;;;;30.58;17.67;;;;;;;;;;6183147;28;20053;-61
2023/05/17 19:20:17;;;;;;;30.25;17.92;;;;;;;;;;6184640;28;20132;-59